createdAt,value
2022-08-04T00:02:10.021Z,15.50
2022-08-04T00:05:05.403Z,15.25
2022-08-04T00:08:04.515Z,14.75
2022-08-04T00:10:34.981Z,16.55
2022-08-04T00:13:08.290Z,14.43
2022-08-04T00:15:38.664Z,16.30
2022-08-04T00:18:23.742Z,16.98
2022-08-04T00:21:01.856Z,15.35
2022-08-04T00:24:11.490Z,15.55
2022-08-04T00:26:26.378Z,16.67
2022-08-04T00:28:53.621Z,15.55
2022-08-04T00:31:53.746Z,17.45
2022-08-04T00:34:13.955Z,16.38
2022-08-04T00:36:45.344Z,15.23
2022-08-04T00:39:16.122Z,15.95
2022-08-04T00:42:30.482Z,15.68
2022-08-04T00:46:00.580Z,17.50
2022-08-04T00:48:56.025Z,15.82
2022-08-04T00:52:31.638Z,19.52
2022-08-04T00:55:34.969Z,15.77
2022-08-04T00:58:14.205Z,16.75
2022-08-04T01:01:06.615Z,16.90
2022-08-04T01:04:26.697Z,15.77
2022-08-04T01:07:50.341Z,19.00
2022-08-04T01:10:58.854Z,16.45
2022-08-04T01:14:03.214Z,16.65
2022-08-04T01:16:42.330Z,15.23
2022-08-04T01:20:01.191Z,15.40
2022-08-04T01:22:33.630Z,17.92
2022-08-04T01:25:43.809Z,16.20
2022-08-04T01:28:58.467Z,16.67
2022-08-04T01:32:00.973Z,14.63
2022-08-04T01:34:35.932Z,15.27
2022-08-04T01:37:46.774Z,16.98
2022-08-04T01:40:16.687Z,15.60
2022-08-04T01:42:45.765Z,15.75
2022-08-04T01:45:14.745Z,17.20
2022-08-04T01:47:51.783Z,16.88
2022-08-04T01:50:23.792Z,17.50
2022-08-04T01:52:57.766Z,15.63
2022-08-04T01:58:19.601Z,16.77
2022-08-04T02:01:13.817Z,16.17
2022-08-04T02:04:21.833Z,17.50
2022-08-04T02:07:17.013Z,17.33
2022-08-04T02:10:06.709Z,16.10
2022-08-04T02:13:29.804Z,17.00
2022-08-04T02:16:27.442Z,15.60
2022-08-04T02:19:33.488Z,15.30
2022-08-04T02:22:18.693Z,16.50
2022-08-04T02:25:09.266Z,13.82
2022-08-04T02:28:13.275Z,13.27
2022-08-04T02:31:23.297Z,12.07
2022-08-04T02:34:52.774Z,10.98
2022-08-04T02:37:29.048Z,9.63
2022-08-04T02:40:04.656Z,8.07
2022-08-04T02:42:37.644Z,9.15
2022-08-04T02:45:07.585Z,10.13
2022-08-04T02:48:08.317Z,9.18
2022-08-04T02:50:29.447Z,7.50
2022-08-04T02:53:03.510Z,6.70
2022-08-04T02:55:39.848Z,6.82
2022-08-04T02:58:21.286Z,7.38
2022-08-04T03:00:51.892Z,11.05
2022-08-04T03:03:48.711Z,9.43
2022-08-04T03:07:14.374Z,7.57
2022-08-04T03:10:19.432Z,7.75
2022-08-04T03:13:23.369Z,7.00
2022-08-04T03:16:17.425Z,7.47
2022-08-04T03:19:17.941Z,6.38
2022-08-04T03:23:15.299Z,7.22
2022-08-04T03:26:40.127Z,9.13
2022-08-04T03:30:11.628Z,7.93
2022-08-04T03:33:24.524Z,8.52
2022-08-04T03:37:12.401Z,8.35
2022-08-04T03:40:08.763Z,11.07
2022-08-04T03:43:58.404Z,6.88
2022-08-04T03:46:48.899Z,7.15
2022-08-04T03:50:19.106Z,7.82
2022-08-04T03:53:09.884Z,9.20
2022-08-04T03:56:39.954Z,8.43
2022-08-04T03:59:48.788Z,7.50
2022-08-04T04:02:41.499Z,10.32
2022-08-04T04:05:41.752Z,10.23
2022-08-04T04:12:33.006Z,6.60
2022-08-04T04:15:55.862Z,9.98
2022-08-04T04:19:07.280Z,9.27
2022-08-04T04:22:28.011Z,8.27
2022-08-04T04:24:57.512Z,8.52
2022-08-04T04:28:44.775Z,7.07
2022-08-04T04:32:02.779Z,7.65
2022-08-04T04:35:25.456Z,8.73
2022-08-04T04:38:40.097Z,6.68
2022-08-04T04:41:39.999Z,7.90
2022-08-04T04:44:49.523Z,7.60
2022-08-04T04:48:08.953Z,9.77
2022-08-04T04:51:38.186Z,8.32
2022-08-04T04:55:56.920Z,10.23
2022-08-04T04:58:26.457Z,7.15
2022-08-04T05:01:28.210Z,8.98
2022-08-04T05:04:21.950Z,6.85
2022-08-04T05:07:15.813Z,10.90
2022-08-04T05:10:21.084Z,7.45
2022-08-04T05:14:35.372Z,7.35
2022-08-04T05:16:17.047Z,8.27
2022-08-04T05:19:08.400Z,8.60
2022-08-04T05:21:49.618Z,9.75
2022-08-04T05:24:27.594Z,7.32
2022-08-04T05:27:03.098Z,6.15
2022-08-04T05:29:37.376Z,6.47
2022-08-04T05:32:16.349Z,5.65
2022-08-04T05:35:04.481Z,5.55
2022-08-04T05:37:39.081Z,5.30
2022-08-04T05:40:09.361Z,5.68
2022-08-04T05:42:41.598Z,5.35
2022-08-04T05:45:10.317Z,5.65
2022-08-04T05:47:38.262Z,9.27
2022-08-04T05:50:08.545Z,5.20
2022-08-04T05:52:39.074Z,5.22
2022-08-04T05:55:11.003Z,5.95
2022-08-04T05:57:41.994Z,4.88
2022-08-04T06:00:38.886Z,6.60
2022-08-04T06:03:00.721Z,4.75
2022-08-04T06:05:29.086Z,8.82
2022-08-04T06:08:12.260Z,4.75
2022-08-04T06:10:46.062Z,9.07
2022-08-04T06:13:47.844Z,6.68
2022-08-04T06:16:28.543Z,6.60
2022-08-04T06:19:59.347Z,5.93
2022-08-04T06:21:59.310Z,7.68
2022-08-04T06:24:32.146Z,6.70
2022-08-04T06:27:00.839Z,5.27
2022-08-04T06:29:51.264Z,5.50
2022-08-04T06:32:47.706Z,5.30
2022-08-04T06:35:19.609Z,5.50
2022-08-04T06:37:48.739Z,5.05
2022-08-04T06:40:31.401Z,4.75
2022-08-04T06:43:07.525Z,6.50
2022-08-04T06:45:41.179Z,4.65
2022-08-04T06:48:13.289Z,5.18
2022-08-04T06:51:26.620Z,5.72
2022-08-04T06:53:31.195Z,6.20
2022-08-04T06:56:01.439Z,5.32
2022-08-04T06:58:32.617Z,5.00
2022-08-04T07:01:03.002Z,4.85
2022-08-04T07:03:32.048Z,4.75
2022-08-04T07:06:06.245Z,4.82
2022-08-04T07:08:41.626Z,7.05
2022-08-04T07:11:10.280Z,4.40
2022-08-04T07:13:41.942Z,4.80
2022-08-04T07:16:15.487Z,4.28
2022-08-04T07:18:42.377Z,3.40
2022-08-04T07:21:09.801Z,5.18
2022-08-04T07:23:37.476Z,3.80
2022-08-04T07:26:12.661Z,4.65
2022-08-04T07:28:41.898Z,4.38
2022-08-04T07:31:33.688Z,5.30
2022-08-04T07:34:16.982Z,4.80
2022-08-04T07:36:56.423Z,3.15
2022-08-04T07:39:29.568Z,7.45
2022-08-04T07:44:33.259Z,7.15
2022-08-04T07:47:07.977Z,6.38
2022-08-04T07:49:54.224Z,3.65
2022-08-04T07:52:26.267Z,4.50
2022-08-04T07:54:54.592Z,5.45
2022-08-04T07:57:40.403Z,5.47
2022-08-04T08:00:14.799Z,5.25
2022-08-04T08:02:48.581Z,5.07
2022-08-04T08:05:19.463Z,8.70
2022-08-04T08:07:50.706Z,4.47
2022-08-04T08:10:23.215Z,4.55
2022-08-04T08:12:52.667Z,8.30
2022-08-04T08:15:20.965Z,3.60
2022-08-04T08:17:59.743Z,6.10
2022-08-04T08:20:32.388Z,6.07
2022-08-04T08:23:03.267Z,5.97
2022-08-04T08:25:33.400Z,5.93
2022-08-04T08:28:05.550Z,4.28
2022-08-04T08:30:34.437Z,7.25
2022-08-04T08:33:07.328Z,4.60
2022-08-04T08:36:07.554Z,4.93
2022-08-04T08:39:07.420Z,4.50
2022-08-04T08:42:35.427Z,5.90
2022-08-04T08:45:46.675Z,4.00
2022-08-04T08:49:02.542Z,4.55
2022-08-04T08:51:51.152Z,5.63
2022-08-04T08:55:09.177Z,7.43
2022-08-04T08:58:07.157Z,4.60
2022-08-04T09:01:12.560Z,8.77
2022-08-04T09:04:09.942Z,3.72
2022-08-04T09:07:27.056Z,8.15
2022-08-04T09:10:09.927Z,5.85
2022-08-04T09:12:50.535Z,2.70
2022-08-04T09:15:53.893Z,3.35
2022-08-04T09:18:50.632Z,3.65
2022-08-04T09:21:41.820Z,3.42
2022-08-04T09:24:35.045Z,2.85
2022-08-04T09:27:46.760Z,2.55
2022-08-04T09:30:21.734Z,2.42
2022-08-04T09:33:45.664Z,3.08
2022-08-04T09:36:53.550Z,3.45
2022-08-04T09:40:07.750Z,1.90
2022-08-04T09:43:59.380Z,2.88
2022-08-04T09:46:44.057Z,2.85
2022-08-04T09:49:31.975Z,2.55
2022-08-04T09:52:26.985Z,2.13
2022-08-04T09:55:26.697Z,2.85
2022-08-04T09:58:15.525Z,7.30
2022-08-04T10:01:01.878Z,2.97
2022-08-04T10:03:38.279Z,5.90
2022-08-04T10:07:03.903Z,3.40
2022-08-04T10:10:00.985Z,2.05
2022-08-04T10:13:13.886Z,3.95
2022-08-04T10:16:19.235Z,4.70
2022-08-04T10:19:14.999Z,6.03
2022-08-04T10:22:40.629Z,4.13
2022-08-04T10:26:07.789Z,2.73
2022-08-04T10:28:49.621Z,3.42
2022-08-04T10:31:28.700Z,3.53
2022-08-04T10:34:12.998Z,4.15
2022-08-04T10:37:04.423Z,2.80
2022-08-04T10:40:24.309Z,3.35
2022-08-04T10:43:05.888Z,4.47
2022-08-04T10:46:09.476Z,2.92
2022-08-04T10:48:56.291Z,2.88
2022-08-04T10:51:57.800Z,2.33
2022-08-04T10:54:57.167Z,1.63
2022-08-04T10:57:48.812Z,1.73
2022-08-04T11:00:25.598Z,3.25
2022-08-04T11:03:05.999Z,1.80
2022-08-04T11:05:59.121Z,1.77
2022-08-04T11:08:36.538Z,2.80
2022-08-04T11:11:21.263Z,2.90
2022-08-04T11:14:03.643Z,3.05
2022-08-04T11:16:49.328Z,3.25
2022-08-04T11:20:32.172Z,3.70
2022-08-04T11:23:20.852Z,6.28
2022-08-04T11:26:03.078Z,3.35
2022-08-04T11:29:28.743Z,3.17
2022-08-04T11:32:03.774Z,2.88
2022-08-04T11:34:34.225Z,4.35
2022-08-04T11:37:23.047Z,4.97
2022-08-04T11:40:13.570Z,7.20
2022-08-04T11:42:56.820Z,2.22
2022-08-04T11:48:28.482Z,3.13
2022-08-04T11:50:57.548Z,2.30
2022-08-04T11:53:36.654Z,2.50
2022-08-04T11:56:11.511Z,2.38
2022-08-04T11:58:50.590Z,3.10
2022-08-04T12:01:45.007Z,4.38
2022-08-04T12:04:34.942Z,4.22
2022-08-04T12:07:42.413Z,2.63
2022-08-04T12:10:56.692Z,3.83
2022-08-04T12:13:41.968Z,2.58
2022-08-04T12:16:30.466Z,3.17
2022-08-04T12:20:03.845Z,2.83
2022-08-04T12:22:50.723Z,2.55
2022-08-04T12:25:44.719Z,3.88
2022-08-04T12:28:28.281Z,3.88
2022-08-04T12:31:24.288Z,3.90
2022-08-04T12:34:07.222Z,4.88
2022-08-04T12:36:39.734Z,4.40
2022-08-04T12:39:27.765Z,3.03
2022-08-04T12:42:38.202Z,2.45
2022-08-04T12:45:10.897Z,2.53
2022-08-04T12:47:40.450Z,3.35
2022-08-04T12:50:13.855Z,2.25
2022-08-04T12:53:03.757Z,3.47
2022-08-04T12:55:35.338Z,2.10
2022-08-04T12:58:15.053Z,2.50
2022-08-04T13:02:05.788Z,1.80
2022-08-04T13:04:19.509Z,3.42
2022-08-04T13:07:03.170Z,2.00
2022-08-04T13:09:34.478Z,2.67
2022-08-04T13:12:32.041Z,2.45
2022-08-04T13:15:18.058Z,5.55
2022-08-04T13:18:14.836Z,6.88
2022-08-04T13:20:44.815Z,2.70
2022-08-04T13:23:21.803Z,2.70
2022-08-04T13:26:42.215Z,2.90
2022-08-04T13:28:49.268Z,2.58
2022-08-04T13:31:23.426Z,2.45
2022-08-04T13:34:02.432Z,2.90
2022-08-04T13:36:33.359Z,2.50
2022-08-04T13:39:10.021Z,2.55
2022-08-04T13:41:45.428Z,3.13
2022-08-04T13:44:31.751Z,2.55
2022-08-04T13:47:10.153Z,2.70
2022-08-04T13:50:00.893Z,2.63
2022-08-04T13:52:26.963Z,2.72
2022-08-04T13:54:54.037Z,2.42
2022-08-04T13:57:36.516Z,4.53
2022-08-04T14:00:09.637Z,4.57
2022-08-04T14:03:23.975Z,4.80
2022-08-04T14:06:21.749Z,5.45
2022-08-04T14:09:19.604Z,3.83
2022-08-04T14:12:10.137Z,4.75
2022-08-04T14:14:54.185Z,5.25
2022-08-04T14:17:30.067Z,3.13
2022-08-04T14:20:02.389Z,3.10
2022-08-04T14:22:34.853Z,3.10
2022-08-04T14:25:18.079Z,3.42
2022-08-04T14:30:37.815Z,5.30
2022-08-04T14:34:00.618Z,3.60
2022-08-04T14:36:03.756Z,2.50
2022-08-04T14:38:49.922Z,4.20
2022-08-04T14:41:28.289Z,2.47
2022-08-04T14:43:59.899Z,3.38
2022-08-04T14:46:35.978Z,3.05
2022-08-04T14:49:13.621Z,3.63
2022-08-04T14:51:51.371Z,5.78
2022-08-04T14:54:35.565Z,3.22
2022-08-04T14:57:07.323Z,2.90
2022-08-04T15:00:00.618Z,2.85
2022-08-04T15:02:29.532Z,2.65
2022-08-04T15:04:59.231Z,3.17
2022-08-04T15:07:46.753Z,2.83
2022-08-04T15:10:14.089Z,9.32
2022-08-04T15:12:41.605Z,2.75
2022-08-04T15:15:35.229Z,3.50
2022-08-04T15:17:56.596Z,6.15
2022-08-04T15:20:23.539Z,4.28
2022-08-04T15:22:50.404Z,5.75
2022-08-04T15:25:19.200Z,7.10
2022-08-04T15:27:51.607Z,7.05
2022-08-04T15:30:19.256Z,6.00
2022-08-04T15:32:59.499Z,5.65
2022-08-04T15:35:48.875Z,5.13
2022-08-04T15:38:31.127Z,8.18
2022-08-04T15:41:20.431Z,7.38
2022-08-04T15:44:24.868Z,6.90
2022-08-04T15:46:51.579Z,5.05
2022-08-04T15:49:24.589Z,6.18
2022-08-04T15:52:16.658Z,7.90
2022-08-04T15:54:52.321Z,6.50
2022-08-04T15:58:08.671Z,7.07
2022-08-04T16:00:56.773Z,6.75
2022-08-04T16:03:57.855Z,7.68
2022-08-04T16:06:37.801Z,5.90
2022-08-04T16:09:05.491Z,6.68
2022-08-04T16:11:40.439Z,7.43
2022-08-04T16:14:11.509Z,4.75
2022-08-04T16:16:38.479Z,8.43
2022-08-04T16:19:16.644Z,6.05
2022-08-04T16:21:58.074Z,5.50
2022-08-04T16:24:37.085Z,9.43
2022-08-04T16:27:10.765Z,7.40
2022-08-04T16:29:47.981Z,4.80
2022-08-04T16:32:26.143Z,5.00
2022-08-04T16:35:03.964Z,8.35
2022-08-04T16:37:33.793Z,5.05
2022-08-04T16:40:41.091Z,7.78
2022-08-04T16:43:20.957Z,6.20
2022-08-04T16:45:50.424Z,6.55
2022-08-04T16:48:31.217Z,5.70
2022-08-04T16:51:13.013Z,9.10
2022-08-04T16:53:52.324Z,9.05
2022-08-04T16:56:35.718Z,5.75
2022-08-04T16:59:12.475Z,8.98
2022-08-04T17:02:09.677Z,6.13
2022-08-04T17:04:36.558Z,6.18
2022-08-04T17:07:06.865Z,7.90
2022-08-04T17:09:33.800Z,6.63
2022-08-04T17:12:02.125Z,5.93
2022-08-04T17:14:34.895Z,8.02
2022-08-04T17:17:02.568Z,6.32
2022-08-04T17:19:29.531Z,4.72
2022-08-04T17:22:06.233Z,9.70
2022-08-04T17:24:40.450Z,7.32
2022-08-04T17:28:06.130Z,4.40
2022-08-04T17:29:55.545Z,5.05
2022-08-04T17:32:23.864Z,4.40
2022-08-04T17:34:59.508Z,6.80
2022-08-04T17:37:41.133Z,4.13
2022-08-04T17:40:25.631Z,4.20
2022-08-04T17:44:04.811Z,5.85
2022-08-04T17:46:34.336Z,4.03
2022-08-04T17:49:22.662Z,7.00
2022-08-04T17:52:10.239Z,5.22
2022-08-04T17:54:43.317Z,5.10
2022-08-04T17:57:23.131Z,6.53
2022-08-04T18:00:00.896Z,7.72
2022-08-04T18:02:35.315Z,7.95
2022-08-04T18:05:12.312Z,5.95
2022-08-04T18:08:38.520Z,5.13
2022-08-04T18:10:52.101Z,7.57
2022-08-04T18:13:28.059Z,5.93
2022-08-04T18:16:06.198Z,6.70
2022-08-04T18:18:41.532Z,7.10
2022-08-04T18:21:15.775Z,6.93
2022-08-04T18:23:50.885Z,7.80
2022-08-04T18:26:18.054Z,8.40
2022-08-04T18:28:45.099Z,10.98
2022-08-04T18:31:11.762Z,8.07
2022-08-04T18:33:43.340Z,7.38
2022-08-04T18:36:33.320Z,7.72
2022-08-04T18:39:12.627Z,7.95
2022-08-04T18:42:02.243Z,7.15
2022-08-04T18:44:49.311Z,6.75
2022-08-04T18:47:30.033Z,6.35
2022-08-04T18:51:01.238Z,8.50
2022-08-04T18:52:46.056Z,5.07
2022-08-04T18:55:55.859Z,5.75
2022-08-04T19:00:52.044Z,5.93
2022-08-04T19:03:22.987Z,5.13
2022-08-04T19:05:51.539Z,8.20
2022-08-04T19:08:33.194Z,5.68
2022-08-04T19:11:38.551Z,6.18
2022-08-04T19:13:54.823Z,5.78
2022-08-04T19:16:30.588Z,5.38
2022-08-04T19:19:00.752Z,5.60
2022-08-04T19:22:01.115Z,5.25
2022-08-04T19:24:31.180Z,9.18
2022-08-04T19:27:02.242Z,5.78
2022-08-04T19:29:41.425Z,12.50
2022-08-04T19:32:13.858Z,7.70
2022-08-04T19:34:45.974Z,6.97
2022-08-04T19:37:58.315Z,6.38
2022-08-04T19:40:09.496Z,6.97
2022-08-04T19:42:37.111Z,6.88
2022-08-04T19:45:05.143Z,6.68
2022-08-04T19:48:18.033Z,7.78
2022-08-04T19:50:19.138Z,7.32
2022-08-04T19:52:51.910Z,6.60
2022-08-04T19:55:37.792Z,7.75
2022-08-04T19:58:08.907Z,7.63
2022-08-04T20:00:39.350Z,8.18
2022-08-04T20:03:11.426Z,9.15
2022-08-04T20:05:53.301Z,7.63
2022-08-04T20:08:26.516Z,8.73
2022-08-04T20:10:55.244Z,8.13
2022-08-04T20:13:25.182Z,8.18
2022-08-04T20:15:58.849Z,8.88
2022-08-04T20:18:35.750Z,9.32
2022-08-04T20:21:11.406Z,9.98
2022-08-04T20:23:48.763Z,9.48
2022-08-04T20:26:17.118Z,10.95
2022-08-04T20:28:45.798Z,11.35
2022-08-04T20:31:19.014Z,11.48
2022-08-04T20:33:53.553Z,10.95
2022-08-04T20:36:21.985Z,11.35
2022-08-04T20:38:54.489Z,10.68
2022-08-04T20:41:22.413Z,10.20
2022-08-04T20:43:49.983Z,10.30
2022-08-04T20:46:28.556Z,10.57
2022-08-04T20:48:57.748Z,11.85
2022-08-04T20:51:32.115Z,11.90
2022-08-04T20:54:03.410Z,10.85
2022-08-04T20:56:50.470Z,11.43
2022-08-04T20:59:19.421Z,10.82
2022-08-04T21:01:49.010Z,10.80
2022-08-04T21:04:32.156Z,11.60
2022-08-04T21:07:03.268Z,10.07
2022-08-04T21:09:38.187Z,10.10
2022-08-04T21:12:27.224Z,9.90
2022-08-04T21:15:13.425Z,9.68
2022-08-04T21:17:58.320Z,11.38
2022-08-04T21:20:30.136Z,9.88
2022-08-04T21:23:02.133Z,11.60
2022-08-04T21:25:30.389Z,10.20
2022-08-04T21:27:58.737Z,11.82
2022-08-04T21:30:27.001Z,12.13
2022-08-04T21:32:54.907Z,13.63
2022-08-04T21:35:36.831Z,13.38
2022-08-04T21:38:04.250Z,13.57
2022-08-04T21:40:54.837Z,12.80
2022-08-04T21:43:28.488Z,12.70
2022-08-04T21:48:31.630Z,12.27
2022-08-04T21:51:58.807Z,14.18
2022-08-04T21:56:33.585Z,14.00
2022-08-04T21:59:00.426Z,15.18
2022-08-04T22:01:50.875Z,16.48
2022-08-04T22:04:14.211Z,15.75
2022-08-04T22:06:47.614Z,16.40
2022-08-04T22:09:19.100Z,16.88
2022-08-04T22:11:50.672Z,15.45
2022-08-04T22:14:29.081Z,17.85
2022-08-04T22:16:57.714Z,17.30
2022-08-04T22:19:49.778Z,21.77
2022-08-04T22:22:13.458Z,16.35
2022-08-04T22:24:41.008Z,17.90
2022-08-04T22:27:32.944Z,17.77
2022-08-04T22:29:59.709Z,21.05
2022-08-04T22:32:26.457Z,20.05
2022-08-04T22:34:53.417Z,18.60
2022-08-04T22:37:28.581Z,20.65
2022-08-04T22:40:05.160Z,23.48
2022-08-04T22:42:32.537Z,23.00
2022-08-04T22:45:01.143Z,19.40
2022-08-04T22:47:28.562Z,19.65
2022-08-04T22:50:20.879Z,19.80
2022-08-04T22:52:55.097Z,20.60
2022-08-04T22:55:23.047Z,22.98
2022-08-04T22:58:05.493Z,21.52
2022-08-04T23:00:36.143Z,18.67
2022-08-04T23:03:06.912Z,21.58
2022-08-04T23:05:38.055Z,18.38
2022-08-04T23:08:05.552Z,17.45
2022-08-04T23:10:33.092Z,16.83
2022-08-04T23:13:04.279Z,17.65
2022-08-04T23:15:33.516Z,18.05
2022-08-04T23:18:01.300Z,18.00
2022-08-04T23:20:32.750Z,20.00
2022-08-04T23:23:14.873Z,17.55
2022-08-04T23:26:07.166Z,16.45
2022-08-04T23:28:32.399Z,16.55
2022-08-04T23:30:59.063Z,15.00
2022-08-04T23:33:51.467Z,14.63
2022-08-04T23:36:12.395Z,14.43
2022-08-04T23:38:42.163Z,16.60
2022-08-04T23:41:17.291Z,14.98
2022-08-04T23:43:49.556Z,13.15
2022-08-04T23:46:23.023Z,14.02
2022-08-04T23:48:53.513Z,16.00
2022-08-04T23:51:23.418Z,14.63
2022-08-04T23:54:03.526Z,13.52
2022-08-04T23:56:34.519Z,14.48
2022-08-04T23:59:03.988Z,12.52
